Terminal Aerodrome Forecast
Issued by NWS Tampa Bay Area, FL

Home | Current Version | Previous Version | Text Only | Print | Product List | Glossary On
Versions: 1 2 3 4 5 6 7 8 9 10 11 12 13 14 15 16 17 18
000
FTUS42 KTBW 261100
TAFSRQ
TAF
KSRQ 261130Z 2612/2712 06007KT P6SM FEW050
     FM261900 VRB06KT P6SM SCT050 SCT250
     FM270700 08004KT 6SM BR SCT008 SCT020=

USA.gov is the U.S. government's official web portal to all federal, state and local government web resources and services.